Time;durP1;ratioP1;P1;durP2;ratioP2;P2;SDS_P1;SDS_P2;PMS_P1;PMS_P2;Temp;Humidity;BMP_temperature;BMP_pressure;BME280_temperature;BME280_humidity;BME280_pressure;Samples;Min_cycle;Max_cycle;Signal;HPM_P1;HPM_P2
2023/09/21 00:04:49;;;;;;;17.70;8.20;;;;;;;14.74;100.00;100004.19;215104;1290;138818;-87
2023/09/21 00:09:49;;;;;;;18.00;8.60;;;;;;;14.72;100.00;99997.02;214233;1286;141001;-87
2023/09/21 00:14:49;;;;;;;17.50;9.30;;;;;;;14.71;100.00;99992.92;214814;1287;138861;-87
2023/09/21 00:19:50;;;;;;;15.80;8.90;;;;;;;14.68;100.00;99994.61;214358;1287;140677;-87
2023/09/21 00:24:52;;;;;;;16.00;8.70;;;;;;;14.65;100.00;99994.87;214899;1290;138714;-88
2023/09/21 00:29:52;;;;;;;14.90;9.10;;;;;;;14.63;100.00;99990.79;214153;1287;141537;-88
2023/09/21 00:34:52;;;;;;;15.00;8.10;;;;;;;14.60;100.00;99983.70;214846;1287;139320;-87
2023/09/21 00:39:53;;;;;;;17.60;8.30;;;;;;;14.58;100.00;99969.58;214161;1287;141107;-87
2023/09/21 00:44:53;;;;;;;14.80;8.00;;;;;;;14.55;100.00;99965.41;214890;1288;139480;-87
2023/09/21 00:49:54;;;;;;;15.50;7.20;;;;;;;14.52;100.00;99958.56;214483;1287;141096;-88
2023/09/21 00:54:55;;;;;;;17.60;7.70;;;;;;;14.49;100.00;99951.72;214747;1287;140462;-87
2023/09/21 00:59:57;;;;;;;16.00;8.00;;;;;;;14.47;100.00;99952.61;214431;1287;141370;-87
2023/09/21 01:04:58;;;;;;;15.70;7.90;;;;;;;14.46;100.00;99943.61;215156;1286;139976;-88
2023/09/21 01:09:59;;;;;;;16.60;8.00;;;;;;;14.43;100.00;99943.89;214807;1287;141749;-87
2023/09/21 01:15:11;;;;;;;18.20;8.30;;;;;;;14.40;100.00;99939.25;215031;1287;139335;-88
2023/09/21 01:20:15;;;;;;;16.40;7.90;;;;;;;14.38;100.00;99939.45;218165;1287;141086;-87
2023/09/21 01:25:15;;;;;;;14.90;7.70;;;;;;;14.34;100.00;99937.82;216067;1287;139563;-87
2023/09/21 01:30:16;;;;;;;17.30;8.30;;;;;;;14.32;100.00;99929.95;214308;1293;140600;-87
2023/09/21 01:35:17;;;;;;;15.50;8.20;;;;;;;14.29;100.00;99926.17;214909;1290;140505;-87
2023/09/21 01:40:17;;;;;;;14.50;8.00;;;;;;;14.27;100.00;99930.79;214287;1288;141942;-86
2023/09/21 01:45:18;;;;;;;16.00;8.70;;;;;;;14.25;100.00;99918.41;215032;1290;139503;-87
2023/09/21 01:50:21;;;;;;;16.00;8.20;;;;;;;14.23;100.00;99915.11;214385;1287;141050;-87
2023/09/21 01:55:21;;;;;;;14.40;7.90;;;;;;;14.20;100.00;99912.98;214918;1286;138876;-87
2023/09/21 02:00:26;;;;;;;16.40;8.50;;;;;;;14.18;100.00;99917.74;214271;1287;140971;-87
2023/09/21 02:05:28;;;;;;;14.90;7.60;;;;;;;14.17;100.00;99917.50;215008;1287;138815;-87
2023/09/21 02:10:28;;;;;;;14.80;8.60;;;;;;;14.14;100.00;99915.41;214434;1290;141094;-89
2023/09/21 02:15:29;;;;;;;17.20;8.30;;;;;;;14.12;100.00;99913.46;214861;1288;139260;-88
2023/09/21 02:20:31;;;;;;;15.60;8.10;;;;;;;14.09;100.00;99906.77;214413;1287;141949;-87
2023/09/21 02:25:40;;;;;;;15.00;8.70;;;;;;;14.08;100.00;99897.30;214859;1287;139493;-87
2023/09/21 02:30:48;;;;;;;17.60;8.80;;;;;;;14.06;100.00;99894.40;214284;1290;141274;-87
2023/09/21 02:35:49;;;;;;;15.80;9.00;;;;;;;14.04;100.00;99890.94;214738;1288;138876;-88
2023/09/21 02:40:49;;;;;;;15.50;9.10;;;;;;;14.03;100.00;99890.01;214274;1287;141181;-87
2023/09/21 02:45:50;;;;;;;18.50;9.00;;;;;;;14.02;100.00;99887.40;214643;1290;140632;-88
2023/09/21 02:50:50;;;;;;;15.50;8.50;;;;;;;14.01;100.00;99881.50;214378;1287;139947;-87
2023/09/21 02:55:52;;;;;;;15.80;9.20;;;;;;;14.00;100.00;99880.95;214807;1288;139554;-88
2023/09/21 03:00:52;;;;;;;16.80;8.80;;;;;;;13.99;100.00;99876.21;214014;1287;142034;-87
2023/09/21 03:05:52;;;;;;;13.60;8.00;;;;;;;13.98;100.00;99877.02;214640;1287;139014;-88
2023/09/21 03:10:53;;;;;;;18.40;9.30;;;;;;;13.97;100.00;99874.02;214133;1291;140891;-88
2023/09/21 03:15:59;;;;;;;16.80;9.60;;;;;;;13.98;100.00;99871.58;214772;1292;139218;-87
2023/09/21 03:21:07;;;;;;;15.90;8.90;;;;;;;13.97;100.00;99863.20;214336;1290;141215;-87
2023/09/21 03:26:11;;;;;;;17.20;9.70;;;;;;;13.98;100.00;99857.82;214903;1290;105035;-87
2023/09/21 03:31:13;;;;;;;15.90;9.40;;;;;;;13.97;100.00;99855.29;214220;1287;142046;-88
2023/09/21 03:36:13;;;;;;;16.60;9.60;;;;;;;13.98;100.00;99849.28;214744;1290;139005;-87
2023/09/21 03:41:15;;;;;;;16.90;10.00;;;;;;;13.97;100.00;99844.55;214227;1289;140720;-87
2023/09/21 03:46:15;;;;;;;15.60;9.40;;;;;;;13.97;100.00;99839.56;214915;1288;140079;-87
2023/09/21 03:51:15;;;;;;;15.60;10.60;;;;;;;13.98;100.00;99841.54;214521;1288;141293;-87
2023/09/21 03:56:16;;;;;;;17.10;9.70;;;;;;;13.97;100.00;99836.17;214971;1290;97933;-87
2023/09/21 04:01:17;;;;;;;15.60;10.50;;;;;;;13.97;100.00;99831.58;214353;1286;140316;-88
2023/09/21 04:06:19;;;;;;;19.10;10.90;;;;;;;13.96;100.00;99834.75;214875;1288;139584;-88
2023/09/21 04:11:19;;;;;;;17.70;10.10;;;;;;;13.96;100.00;99833.26;214225;1287;141637;-87
2023/09/21 04:16:20;;;;;;;19.60;10.70;;;;;;;13.95;100.00;99830.41;214758;1290;140182;-87
2023/09/21 04:21:20;;;;;;;17.40;11.00;;;;;;;13.94;100.00;99827.10;214403;1288;141460;-88
2023/09/21 04:26:21;;;;;;;18.30;10.50;;;;;;;13.95;100.00;99822.52;215115;1289;98437;-88
2023/09/21 04:31:21;;;;;;;18.30;11.10;;;;;;;13.95;100.00;99818.41;214496;1287;140097;-87
2023/09/21 04:36:24;;;;;;;18.00;10.90;;;;;;;13.96;100.00;99818.94;215055;1287;139442;-88
2023/09/21 04:41:27;;;;;;;16.60;10.60;;;;;;;13.97;100.00;99817.74;214605;1287;143133;-86
2023/09/21 04:46:28;;;;;;;20.50;10.80;;;;;;;13.98;100.00;99814.27;214946;1288;139648;-87
2023/09/21 04:51:28;;;;;;;19.40;11.10;;;;;;;13.98;100.00;99808.09;214234;1288;141742;-88
2023/09/21 04:56:28;;;;;;;16.20;10.20;;;;;;;14.01;100.00;99808.45;214832;1286;98003;-87
2023/09/21 05:01:29;;;;;;;17.90;11.10;;;;;;;14.02;100.00;99808.34;214505;1286;141169;-88
2023/09/21 05:06:30;;;;;;;17.20;10.70;;;;;;;14.05;100.00;99804.52;214858;1290;139016;-86
2023/09/21 05:11:38;;;;;;;19.80;10.70;;;;;;;14.07;100.00;99797.55;214627;1290;141561;-88
2023/09/21 05:16:40;;;;;;;19.20;11.50;;;;;;;14.11;100.00;99798.20;215134;1290;139892;-87
2023/09/21 05:21:41;;;;;;;16.60;10.80;;;;;;;14.14;100.00;99796.73;214544;1290;142318;-89
2023/09/21 05:26:41;;;;;;;18.30;10.70;;;;;;;14.19;100.00;99793.05;215281;1288;97929;-87
2023/09/21 05:31:41;;;;;;;20.40;11.20;;;;;;;14.26;100.00;99793.61;214377;1287;141947;-87
2023/09/21 05:36:45;;;;;;;16.90;10.80;;;;;;;14.32;100.00;99788.13;215467;1290;139039;-87
2023/09/21 05:41:49;;;;;;;17.60;10.30;;;;;;;14.40;100.00;99794.34;214527;1288;142276;-88
2023/09/21 05:46:50;;;;;;;16.20;10.00;;;;;;;14.49;100.00;99795.16;214984;1287;139262;-88
2023/09/21 05:51:56;;;;;;;15.90;10.00;;;;;;;14.60;100.00;99796.66;214457;1288;143146;-88
2023/09/21 05:56:56;;;;;;;17.80;10.10;;;;;;;14.72;100.00;99790.77;215129;1286;139147;-87
2023/09/21 06:01:57;;;;;;;22.10;12.50;;;;;;;14.86;100.00;99791.58;214431;1287;140964;-89
2023/09/21 06:06:58;;;;;;;20.00;12.10;;;;;;;15.03;100.00;99793.89;214980;1290;139460;-88
2023/09/21 06:11:59;;;;;;;18.40;10.00;;;;;;;15.21;100.00;99800.14;214227;1288;142575;-88
2023/09/21 06:17:00;;;;;;;16.60;10.20;;;;;;;15.33;100.00;99799.23;215193;1292;140036;-87
2023/09/21 06:22:00;;;;;;;15.70;9.30;;;;;;;15.46;100.00;99793.95;214584;1292;143736;-91
2023/09/21 06:27:01;;;;;;;20.10;10.00;;;;;;;15.65;100.00;99790.02;214936;1288;139394;-88
2023/09/21 06:32:07;;;;;;;19.10;10.40;;;;;;;15.78;100.00;99786.50;214754;1288;140829;-87
2023/09/21 06:37:07;;;;;;;16.90;9.90;;;;;;;15.93;100.00;99777.39;214791;1291;139569;-88
2023/09/21 06:42:08;;;;;;;16.60;10.60;;;;;;;16.10;100.00;99775.20;214511;1290;141128;-88
2023/09/21 06:47:08;;;;;;;14.60;8.90;;;;;;;16.28;100.00;99771.32;215032;1286;139038;-87
2023/09/21 06:52:08;;;;;;;14.40;8.60;;;;;;;16.41;100.00;99766.64;214847;1290;140593;-88
2023/09/21 06:57:09;;;;;;;18.40;9.00;;;;;;;16.56;100.00;99770.20;215367;1291;139038;-87
2023/09/21 07:02:09;;;;;;;16.60;9.20;;;;;;;16.70;100.00;99767.56;215177;1287;141358;-87
2023/09/21 07:07:10;;;;;;;19.30;9.20;;;;;;;16.84;100.00;99767.94;215484;1288;138746;-86
2023/09/21 07:12:11;;;;;;;14.10;8.00;;;;;;;17.01;100.00;99765.91;215004;1293;142444;-88
2023/09/21 07:17:11;;;;;;;14.80;8.30;;;;;;;17.15;100.00;99763.96;215631;1290;137761;-87
2023/09/21 07:22:25;;;;;;;16.50;9.60;;;;;;;17.27;100.00;99763.63;214943;1290;140959;-88
2023/09/21 07:27:30;;;;;;;16.60;8.60;;;;;;;17.48;100.00;99767.56;214926;1292;140119;-88
2023/09/21 07:32:32;;;;;;;19.60;8.10;;;;;;;17.62;100.00;99761.02;214452;1288;139679;-89
2023/09/21 07:37:33;;;;;;;17.00;8.40;;;;;;;17.84;100.00;99760.42;214965;1290;139533;-89
2023/09/21 07:42:34;;;;;;;14.90;7.60;;;;;;;18.00;100.00;99753.58;214505;1291;140325;-88
2023/09/21 07:47:34;;;;;;;13.40;7.10;;;;;;;18.16;100.00;99751.41;215120;1292;139409;-87
2023/09/21 07:52:36;;;;;;;17.30;7.20;;;;;;;18.36;100.00;99747.63;214929;1286;141057;-88
2023/09/21 07:57:39;;;;;;;14.20;7.00;;;;;;;18.59;100.00;99740.54;215214;1291;139057;-87
2023/09/21 08:02:40;;;;;;;16.20;7.20;;;;;;;18.84;100.00;99735.14;214498;1288;141159;-88
2023/09/21 08:07:40;;;;;;;15.00;6.40;;;;;;;19.13;100.00;99736.17;215160;1292;138722;-87
2023/09/21 08:12:56;;;;;;;15.10;6.60;;;;;;;19.42;100.00;99734.60;214692;1287;142850;-87
2023/09/21 08:17:56;;;;;;;12.30;6.20;;;;;;;19.71;100.00;99734.94;214666;1291;138845;-87
2023/09/21 08:22:57;;;;;;;14.00;6.30;;;;;;;20.02;99.72;99730.13;214340;1290;140118;-88
2023/09/21 08:27:58;;;;;;;14.00;6.60;;;;;;;20.35;99.55;99720.92;215257;1285;139706;-87
2023/09/21 08:32:59;;;;;;;16.00;6.00;;;;;;;20.69;98.15;99726.57;214958;1285;142137;-86
2023/09/21 08:38:00;;;;;;;12.10;5.50;;;;;;;21.05;97.15;99724.73;214812;1287;97985;-89
2023/09/21 08:43:01;;;;;;;39.90;6.70;;;;;;;21.43;96.64;99721.24;215644;1287;140724;-89
2023/09/21 08:48:03;;;;;;;13.00;5.70;;;;;;;21.89;95.33;99721.71;215749;1289;139072;-89
2023/09/21 08:53:08;;;;;;;15.20;5.60;;;;;;;22.41;92.84;99714.15;215968;1286;140920;-90
2023/09/21 08:58:12;;;;;;;14.10;5.40;;;;;;;22.98;90.97;99705.36;215952;1290;139260;-89
2023/09/21 09:03:13;;;;;;;19.00;5.50;;;;;;;23.59;89.63;99706.73;214477;1288;141328;-87
2023/09/21 09:08:22;;;;;;;16.40;5.70;;;;;;;24.34;87.99;99702.73;214888;1287;106136;-88
2023/09/21 09:13:32;;;;;;;40.20;6.10;;;;;;;25.12;84.42;99697.48;215103;1284;140256;-86
2023/09/21 09:18:34;;;;;;;17.10;5.20;;;;;;;25.76;80.56;99696.20;215354;1285;138682;-86
2023/09/21 09:24:19;;;;;;;14.10;4.30;;;;;;;26.30;77.51;99691.81;214702;1287;140989;-87
2023/09/21 09:29:22;;;;;;;10.60;4.30;;;;;;;27.04;75.30;99681.16;214408;1288;141303;-88
2023/09/21 09:34:22;;;;;;;8.60;3.50;;;;;;;27.64;72.32;99672.39;214926;1290;140513;-88
2023/09/21 09:39:23;;;;;;;12.10;4.00;;;;;;;28.15;70.18;99662.68;214514;1287;141228;-88
2023/09/21 09:44:29;;;;;;;11.30;3.80;;;;;;;28.68;68.81;99656.44;215002;1288;98839;-88
2023/09/21 09:49:41;;;;;;;9.80;4.10;;;;;;;29.16;65.51;99654.81;214151;1290;143439;-88
2023/09/21 09:54:42;;;;;;;13.70;3.70;;;;;;;29.66;64.11;99647.33;214449;1290;138622;-88
2023/09/21 09:59:44;;;;;;;16.60;3.90;;;;;;;30.14;62.18;99647.21;214622;1288;139766;-87
2023/09/21 10:04:49;;;;;;;13.00;3.40;;;;;;;30.39;58.85;99647.79;214945;1287;138296;-87
2023/09/21 10:09:49;;;;;;;17.30;3.50;;;;;;;30.32;57.63;99640.98;214290;1286;140114;-87
2023/09/21 10:14:50;;;;;;;12.90;3.70;;;;;;;30.69;57.85;99634.24;215224;1290;98368;-87
2023/09/21 10:19:50;;;;;;;10.60;4.00;;;;;;;30.90;56.44;99632.20;214595;1288;140983;-86
2023/09/21 10:24:53;;;;;;;12.70;3.60;;;;;;;31.08;54.89;99631.56;215218;1286;138146;-88
2023/09/21 10:30:06;;;;;;;8.30;3.60;;;;;;;31.26;53.74;99626.58;214722;1287;139963;-88
2023/09/21 10:35:27;;;;;;;11.00;3.50;;;;;;;31.58;53.43;99617.17;215156;1287;138413;-88
2023/09/21 10:40:27;;;;;;;15.60;4.10;;;;;;;31.72;52.16;99608.22;214521;1287;140187;-89
2023/09/21 10:45:58;;;;;;;12.20;3.40;;;;;;;31.47;50.42;99601.15;215372;1288;137010;-87
2023/09/21 10:51:03;;;;;;;14.10;3.90;;;;;;;31.23;50.76;99597.88;214598;1290;140130;-88
2023/09/21 10:56:05;;;;;;;13.40;3.80;;;;;;;31.25;50.62;99589.69;215139;1287;138452;-87
2023/09/21 11:01:06;;;;;;;11.50;3.20;;;;;;;31.19;50.02;99587.02;214532;1286;144439;-87
2023/09/21 11:06:06;;;;;;;14.10;3.50;;;;;;;31.07;50.11;99578.04;215753;1285;138651;-87
2023/09/21 11:11:06;;;;;;;9.50;3.60;;;;;;;31.06;49.52;99579.39;214532;1286;139054;-87
2023/09/21 11:16:09;;;;;;;13.60;4.10;;;;;;;30.76;49.11;99575.14;214838;1287;138468;-89
2023/09/21 11:21:09;;;;;;;20.00;4.10;;;;;;;30.58;49.00;99569.05;214663;1286;140846;-88
2023/09/21 11:26:11;;;;;;;33.10;5.70;;;;;;;30.41;49.49;99571.77;216718;1286;97957;-87
2023/09/21 11:31:21;;;;;;;11.50;3.60;;;;;;;30.34;49.55;99567.23;214650;1286;140012;-85
2023/09/21 11:36:21;;;;;;;14.00;3.60;;;;;;;30.32;49.87;99562.52;214802;1286;138575;-86
2023/09/21 11:41:22;;;;;;;13.60;3.60;;;;;;;30.32;49.74;99555.34;215920;1286;140696;-87
2023/09/21 11:46:24;;;;;;;13.40;3.40;;;;;;;30.25;49.30;99547.30;215036;1286;138272;-85
2023/09/21 11:51:28;;;;;;;12.90;3.70;;;;;;;30.34;49.86;99538.54;214375;1287;139964;-85
2023/09/21 11:56:28;;;;;;;26.80;4.60;;;;;;;30.34;49.07;99538.27;215254;1287;97930;-87
2023/09/21 12:01:29;;;;;;;9.70;3.60;;;;;;;30.24;49.53;99525.60;214339;1287;139896;-87
2023/09/21 12:06:32;;;;;;;13.30;3.60;;;;;;;30.21;49.33;99522.06;214949;1290;137868;-88
2023/09/21 12:11:34;;;;;;;11.40;3.30;;;;;;;30.11;49.31;99520.04;214104;1286;140230;-88
2023/09/21 12:16:35;;;;;;;14.10;3.60;;;;;;;30.10;49.14;99515.57;214580;1286;138499;-85
2023/09/21 12:21:36;;;;;;;12.70;3.70;;;;;;;30.05;49.18;99507.36;214268;1286;140049;-85
2023/09/21 12:26:36;;;;;;;9.20;3.40;;;;;;;29.89;48.38;99505.10;215088;1288;98016;-85
2023/09/21 12:31:37;;;;;;;18.20;4.00;;;;;;;29.70;48.51;99498.01;214527;1287;141489;-87
2023/09/21 12:36:38;;;;;;;9.60;4.60;;;;;;;29.60;48.21;99499.13;215205;1286;138269;-86
2023/09/21 12:41:39;;;;;;;33.40;4.70;;;;;;;29.47;48.93;99494.98;214500;1287;140661;-86
2023/09/21 12:46:39;;;;;;;9.50;3.60;;;;;;;29.41;49.02;99489.56;214998;1287;138123;-88
2023/09/21 12:51:41;;;;;;;11.40;3.90;;;;;;;29.29;48.63;99486.16;214396;1287;141594;-86
2023/09/21 12:56:42;;;;;;;12.70;3.60;;;;;;;29.19;48.93;99478.92;214938;1287;98046;-87
2023/09/21 13:01:42;;;;;;;8.80;3.40;;;;;;;29.05;49.30;99473.73;215457;1287;140278;-86
2023/09/21 13:06:43;;;;;;;10.80;4.40;;;;;;;28.97;49.26;99470.27;215438;1290;137923;-86
2023/09/21 13:11:43;;;;;;;9.90;4.00;;;;;;;28.87;49.42;99468.35;214475;1287;140528;-86
2023/09/21 13:16:44;;;;;;;10.90;3.70;;;;;;;28.81;49.04;99459.74;216562;1286;137991;-87
2023/09/21 13:21:47;;;;;;;14.90;3.80;;;;;;;28.76;48.99;99456.12;214661;1286;140233;-86
2023/09/21 13:26:48;;;;;;;9.40;3.40;;;;;;;28.70;49.17;99458.73;215003;1288;99260;-86
2023/09/21 13:31:49;;;;;;;10.30;3.40;;;;;;;28.65;49.61;99454.48;214312;1287;139431;-86
2023/09/21 13:36:49;;;;;;;20.70;3.90;;;;;;;28.62;49.45;99447.66;214875;1288;137805;-86
2023/09/21 13:41:58;;;;;;;12.30;3.50;;;;;;;28.58;49.26;99443.45;214179;1287;141348;-86
2023/09/21 13:47:00;;;;;;;20.90;3.70;;;;;;;28.52;49.17;99441.85;215104;1285;137949;-86
2023/09/21 13:52:02;;;;;;;11.40;3.80;;;;;;;28.50;49.33;99438.46;214537;1286;140143;-85
2023/09/21 13:57:04;;;;;;;10.50;3.70;;;;;;;28.44;48.91;99430.88;215153;1286;98457;-86
2023/09/21 14:02:05;;;;;;;11.90;4.00;;;;;;;28.34;49.17;99426.77;214337;1290;139581;-86
2023/09/21 14:07:06;;;;;;;11.80;3.90;;;;;;;28.24;49.54;99419.84;215142;1286;138045;-86
2023/09/21 14:12:08;;;;;;;12.20;4.40;;;;;;;28.20;50.48;99415.08;214955;1286;138719;-86
2023/09/21 14:17:08;;;;;;;9.60;3.90;;;;;;;28.12;51.22;99410.57;215415;1286;138233;-87
2023/09/21 14:22:09;;;;;;;12.10;4.00;;;;;;;27.98;51.11;99402.70;214539;1291;139822;-85
2023/09/21 14:27:09;;;;;;;9.90;3.80;;;;;;;27.86;50.91;99407.69;214585;1288;139235;-85
2023/09/21 14:32:10;;;;;;;23.90;4.80;;;;;;;27.78;50.81;99399.88;214452;1286;140194;-87
2023/09/21 14:37:10;;;;;;;12.90;4.90;;;;;;;27.73;51.36;99401.38;215349;1286;137918;-86
2023/09/21 14:42:12;;;;;;;13.90;4.80;;;;;;;27.63;51.35;99395.90;214288;1290;140421;-87
2023/09/21 14:47:12;;;;;;;8.30;3.90;;;;;;;27.54;51.73;99393.51;214836;1290;138139;-86
2023/09/21 14:52:13;;;;;;;13.10;4.90;;;;;;;27.46;52.35;99386.84;214357;1287;140502;-87
2023/09/21 14:57:13;;;;;;;15.40;5.50;;;;;;;27.39;53.16;99387.22;214934;1288;138057;-87
2023/09/21 15:02:14;;;;;;;19.10;5.30;;;;;;;27.32;53.43;99384.09;214361;1286;142083;-87
2023/09/21 15:07:15;;;;;;;13.30;4.40;;;;;;;27.22;53.76;99382.61;214946;1287;137830;-87
2023/09/21 15:12:16;;;;;;;13.40;5.60;;;;;;;27.09;54.38;99382.23;214330;1285;143305;-87
2023/09/21 15:17:16;;;;;;;10.40;5.00;;;;;;;26.97;54.75;99378.45;214828;1288;138057;-86
2023/09/21 15:22:17;;;;;;;13.60;4.90;;;;;;;26.90;54.85;99376.44;214268;1286;139962;-85
2023/09/21 15:27:19;;;;;;;17.20;5.60;;;;;;;26.85;55.27;99373.75;214800;1287;138114;-86
2023/09/21 15:32:19;;;;;;;10.10;4.30;;;;;;;26.78;55.43;99370.37;214439;1287;140347;-86
2023/09/21 15:37:21;;;;;;;14.90;5.70;;;;;;;26.69;55.59;99370.78;214868;1287;138503;-87
2023/09/21 15:42:22;;;;;;;15.50;4.90;;;;;;;26.63;55.37;99362.34;214416;1287;139817;-86
2023/09/21 15:47:22;;;;;;;12.90;4.40;;;;;;;26.58;55.45;99354.96;214709;1288;138182;-87
2023/09/21 15:52:23;;;;;;;12.60;4.50;;;;;;;26.53;55.55;99358.16;214578;1286;140055;-86
2023/09/21 15:57:24;;;;;;;9.80;3.70;;;;;;;26.48;55.78;99351.33;215299;1285;138082;-87
2023/09/21 16:02:25;;;;;;;8.50;4.50;;;;;;;26.41;56.14;99345.77;214371;1288;139714;-86
2023/09/21 16:07:25;;;;;;;11.90;4.40;;;;;;;26.34;56.34;99341.30;214669;1288;138785;-86
2023/09/21 16:12:26;;;;;;;11.80;5.10;;;;;;;26.25;56.67;99335.93;214374;1288;139972;-86
2023/09/21 16:17:27;;;;;;;13.10;3.90;;;;;;;26.14;56.41;99335.81;215123;1285;138157;-87
2023/09/21 16:22:27;;;;;;;12.10;4.50;;;;;;;26.06;56.55;99330.00;214473;1287;140155;-86
2023/09/21 16:27:27;;;;;;;12.30;4.10;;;;;;;25.96;56.92;99331.26;214713;1287;139110;-88
2023/09/21 16:32:28;;;;;;;12.10;4.40;;;;;;;25.85;56.88;99333.06;214464;1288;139343;-86
2023/09/21 16:37:28;;;;;;;10.80;3.80;;;;;;;25.74;57.13;99333.70;214812;1287;138041;-88
2023/09/21 16:42:29;;;;;;;11.10;3.70;;;;;;;25.64;57.25;99330.42;214597;1287;140949;-88
2023/09/21 16:47:29;;;;;;;11.80;4.00;;;;;;;25.54;57.59;99319.11;215003;1287;139052;-88
2023/09/21 16:52:30;;;;;;;14.80;4.20;;;;;;;25.41;57.95;99313.98;214309;1290;140277;-87
2023/09/21 16:57:31;;;;;;;8.50;3.60;;;;;;;25.27;58.27;99313.27;214740;1287;138449;-87
2023/09/21 17:02:34;;;;;;;7.80;3.70;;;;;;;25.16;58.65;99313.48;214084;1287;139535;-87
2023/09/21 17:07:35;;;;;;;8.80;3.30;;;;;;;25.04;58.82;99311.61;215422;1288;138091;-88
2023/09/21 17:12:35;;;;;;;8.00;3.10;;;;;;;24.94;59.11;99308.94;214170;1288;141099;-88
2023/09/21 17:17:36;;;;;;;10.50;4.00;;;;;;;24.86;59.17;99314.40;214711;1287;138746;-88
2023/09/21 17:22:40;;;;;;;9.70;3.30;;;;;;;24.77;59.30;99312.70;214204;1287;140299;-87
2023/09/21 17:27:42;;;;;;;11.00;3.20;;;;;;;24.73;59.43;99313.02;214945;1287;137875;-89
2023/09/21 17:32:43;;;;;;;14.40;3.40;;;;;;;24.68;59.39;99315.43;214664;1286;143436;-89
2023/09/21 17:37:43;;;;;;;8.40;3.20;;;;;;;24.64;59.65;99314.38;214713;1286;137973;-88
2023/09/21 17:42:44;;;;;;;10.20;3.50;;;;;;;24.59;59.79;99313.15;214092;1286;141478;-87
2023/09/21 17:47:46;;;;;;;10.40;2.90;;;;;;;24.57;59.58;99315.63;214708;1287;140126;-87
2023/09/21 17:52:47;;;;;;;9.80;3.20;;;;;;;24.58;59.50;99312.27;214177;1287;140325;-87
2023/09/21 17:57:48;;;;;;;12.60;3.10;;;;;;;24.57;59.53;99311.44;214798;1288;138006;-88
2023/09/21 18:02:48;;;;;;;7.90;2.90;;;;;;;24.55;59.35;99308.23;214185;1288;140443;-88
2023/09/21 18:07:49;;;;;;;10.20;2.80;;;;;;;24.56;59.18;99300.41;214774;1287;138250;-87
2023/09/21 18:12:50;;;;;;;10.40;3.20;;;;;;;24.56;59.20;99297.91;214395;1287;140512;-87
2023/09/21 18:17:50;;;;;;;9.50;3.00;;;;;;;24.54;59.22;99293.19;214963;1288;138053;-87
2023/09/21 18:22:54;;;;;;;11.10;3.20;;;;;;;24.54;59.20;99285.66;215373;1288;139751;-87
2023/09/21 18:27:54;;;;;;;9.90;2.90;;;;;;;24.53;59.47;99289.14;214995;1289;138079;-88
2023/09/21 18:32:55;;;;;;;13.30;3.10;;;;;;;24.51;59.20;99287.95;214664;1287;141279;-88
2023/09/21 18:37:56;;;;;;;11.10;3.30;;;;;;;24.51;59.20;99289.73;215069;1287;138252;-89
2023/09/21 18:42:58;;;;;;;12.20;3.30;;;;;;;24.48;59.27;99284.23;214524;1288;139862;-88
2023/09/21 18:47:58;;;;;;;9.30;2.70;;;;;;;24.46;59.44;99280.39;215102;1287;138477;-87
2023/09/21 18:52:59;;;;;;;9.80;2.90;;;;;;;24.42;59.61;99276.96;214398;1288;140902;-89
2023/09/21 18:57:59;;;;;;;7.90;3.00;;;;;;;24.36;59.85;99272.73;214830;1290;137989;-87
2023/09/21 19:03:00;;;;;;;13.00;3.30;;;;;;;24.31;60.33;99265.89;214536;1288;141606;-88
2023/09/21 19:08:00;;;;;;;8.00;3.10;;;;;;;24.25;60.57;99264.95;215047;1288;137850;-88
2023/09/21 19:13:01;;;;;;;13.30;4.00;;;;;;;24.18;60.87;99265.66;214391;1286;140820;-88
2023/09/21 19:18:01;;;;;;;9.80;3.40;;;;;;;24.10;61.30;99261.86;214953;1290;138158;-88
2023/09/21 19:23:02;;;;;;;8.60;4.10;;;;;;;24.03;61.48;99257.18;214352;1288;139789;-86
2023/09/21 19:28:03;;;;;;;10.10;3.50;;;;;;;23.96;61.73;99254.30;214912;1288;139314;-88
2023/09/21 19:33:04;;;;;;;11.50;4.00;;;;;;;23.88;62.15;99252.26;214543;1288;140710;-88
2023/09/21 19:38:04;;;;;;;11.20;3.80;;;;;;;23.77;62.41;99245.69;215361;1286;138156;-89
2023/09/21 19:43:05;;;;;;;8.00;3.70;;;;;;;23.70;62.57;99245.15;214433;1288;141193;-90
2023/09/21 19:48:06;;;;;;;13.80;4.90;;;;;;;23.63;62.74;99236.75;215089;1290;137880;-87
2023/09/21 19:53:06;;;;;;;10.20;3.90;;;;;;;23.56;63.01;99234.41;214400;1287;140373;-90
2023/09/21 19:58:07;;;;;;;8.00;4.30;;;;;;;23.46;63.32;99225.92;214806;1286;138577;-89
2023/09/21 20:03:12;;;;;;;12.00;4.00;;;;;;;23.36;63.55;99216.02;214412;1287;138827;-87
2023/09/21 20:08:12;;;;;;;12.50;3.80;;;;;;;23.28;63.87;99213.31;214986;1290;112314;-88
2023/09/21 20:13:12;;;;;;;10.50;4.00;;;;;;;23.19;64.19;99204.77;214438;1288;140317;-88
2023/09/21 20:18:13;;;;;;;15.80;4.70;;;;;;;23.09;64.45;99195.83;214860;1286;137899;-88
2023/09/21 20:23:13;;;;;;;10.50;4.50;;;;;;;22.98;64.92;99189.96;214291;1290;140137;-88
2023/09/21 20:28:14;;;;;;;8.60;5.10;;;;;;;22.88;65.23;99181.38;214686;1285;138351;-88
2023/09/21 20:33:15;;;;;;;11.40;4.80;;;;;;;22.78;65.50;99174.16;214252;1290;140951;-88
2023/09/21 20:38:17;;;;;;;9.60;4.80;;;;;;;22.70;66.00;99166.64;214718;1288;97920;-87
2023/09/21 20:43:17;;;;;;;11.60;4.50;;;;;;;22.62;66.45;99161.27;214450;1287;140792;-87
2023/09/21 20:48:18;;;;;;;9.30;4.40;;;;;;;22.52;66.83;99153.39;214608;1287;138363;-88
2023/09/21 20:53:18;;;;;;;11.40;4.40;;;;;;;22.46;67.32;99153.74;214612;1285;140221;-87
2023/09/21 20:58:18;;;;;;;13.90;5.00;;;;;;;22.39;67.54;99151.67;214549;1287;138291;-88
2023/09/21 21:03:19;;;;;;;11.30;4.70;;;;;;;22.32;67.97;99153.92;214103;1286;139769;-89
2023/09/21 21:08:19;;;;;;;11.40;5.50;;;;;;;22.24;67.98;99153.34;214482;1288;98047;-89
2023/09/21 21:13:20;;;;;;;16.40;6.10;;;;;;;22.16;68.34;99148.36;213776;1287;139902;-88
2023/09/21 21:18:20;;;;;;;12.90;5.50;;;;;;;22.07;68.61;99147.98;214504;1286;138178;-90
2023/09/21 21:23:21;;;;;;;7.50;4.40;;;;;;;21.99;68.69;99148.71;213848;1288;140542;-88
2023/09/21 21:28:21;;;;;;;12.10;5.60;;;;;;;21.92;68.92;99149.14;214477;1291;138639;-88
2023/09/21 21:33:22;;;;;;;10.60;4.90;;;;;;;21.84;69.17;99149.53;213924;1288;140005;-87
2023/09/21 21:38:22;;;;;;;12.20;5.00;;;;;;;21.77;69.13;99151.64;214269;1290;107075;-88
2023/09/21 21:43:22;;;;;;;10.60;5.30;;;;;;;21.67;69.67;99145.86;213821;1288;140676;-88
2023/09/21 21:48:23;;;;;;;10.80;5.10;;;;;;;21.57;70.02;99142.95;214233;1290;138256;-90
2023/09/21 21:53:24;;;;;;;14.10;5.90;;;;;;;21.48;70.15;99140.05;213882;1290;140452;-89
2023/09/21 21:58:24;;;;;;;11.70;6.10;;;;;;;21.40;70.46;99132.67;214246;1290;138305;-89
2023/09/21 22:03:25;;;;;;;12.60;5.40;;;;;;;21.31;70.88;99124.29;213720;1287;141018;-88
2023/09/21 22:08:25;;;;;;;11.50;5.20;;;;;;;21.22;71.30;99121.54;214964;1287;96654;-89
2023/09/21 22:13:26;;;;;;;12.60;5.40;;;;;;;21.15;71.61;99122.72;214499;1288;141514;-86
2023/09/21 22:18:26;;;;;;;12.60;5.50;;;;;;;21.09;71.82;99118.27;215023;1290;139635;-89
2023/09/21 22:23:27;;;;;;;12.60;5.60;;;;;;;21.02;72.12;99113.16;214649;1288;141904;-88
2023/09/21 22:28:27;;;;;;;11.10;5.40;;;;;;;20.97;72.51;99108.57;214897;1288;138509;-90
2023/09/21 22:33:27;;;;;;;11.20;5.00;;;;;;;20.92;72.54;99104.77;214568;1290;140297;-89
2023/09/21 22:38:28;;;;;;;9.60;5.30;;;;;;;20.89;72.79;99099.23;214600;1288;97949;-88
2023/09/21 22:43:28;;;;;;;12.30;5.10;;;;;;;20.86;73.00;99092.73;213928;1290;140466;-89
2023/09/21 22:48:29;;;;;;;12.00;5.50;;;;;;;20.84;73.15;99096.13;214777;1288;138424;-86